sensor_id;sensor_type;location;lat;lon;timestamp;P1;durP1;ratioP1;P2;durP2;ratioP2
29500;SDS011;16450;50.288;10.966;2022-11-13T00:00:52;12.00;;;9.07;;
29500;SDS011;16450;50.288;10.966;2022-11-13T00:03:53;11.83;;;9.17;;
29500;SDS011;16450;50.288;10.966;2022-11-13T00:06:54;13.13;;;8.90;;
29500;SDS011;16450;50.288;10.966;2022-11-13T00:09:54;11.47;;;9.20;;
29500;SDS011;16450;50.288;10.966;2022-11-13T00:12:55;13.13;;;9.00;;
29500;SDS011;16450;50.288;10.966;2022-11-13T00:15:56;12.27;;;8.63;;
29500;SDS011;16450;50.288;10.966;2022-11-13T00:19:09;11.47;;;8.67;;
29500;SDS011;16450;50.288;10.966;2022-11-13T00:22:10;11.73;;;9.27;;
29500;SDS011;16450;50.288;10.966;2022-11-13T00:25:10;14.23;;;9.30;;
29500;SDS011;16450;50.288;10.966;2022-11-13T00:28:11;12.30;;;9.00;;
29500;SDS011;16450;50.288;10.966;2022-11-13T00:31:13;11.23;;;8.57;;
29500;SDS011;16450;50.288;10.966;2022-11-13T00:34:14;12.73;;;8.60;;
29500;SDS011;16450;50.288;10.966;2022-11-13T00:37:15;12.27;;;8.50;;
29500;SDS011;16450;50.288;10.966;2022-11-13T00:40:15;11.97;;;8.37;;
29500;SDS011;16450;50.288;10.966;2022-11-13T00:43:16;11.70;;;8.63;;
29500;SDS011;16450;50.288;10.966;2022-11-13T00:46:17;10.43;;;7.80;;
29500;SDS011;16450;50.288;10.966;2022-11-13T00:49:18;9.67;;;7.53;;
29500;SDS011;16450;50.288;10.966;2022-11-13T00:52:19;9.87;;;7.47;;
29500;SDS011;16450;50.288;10.966;2022-11-13T00:55:19;11.07;;;7.63;;
29500;SDS011;16450;50.288;10.966;2022-11-13T00:58:20;10.17;;;7.33;;
29500;SDS011;16450;50.288;10.966;2022-11-13T01:01:21;9.03;;;6.97;;
29500;SDS011;16450;50.288;10.966;2022-11-13T01:04:22;9.90;;;7.07;;
29500;SDS011;16450;50.288;10.966;2022-11-13T01:07:23;10.23;;;7.40;;
29500;SDS011;16450;50.288;10.966;2022-11-13T01:10:23;9.53;;;7.50;;
29500;SDS011;16450;50.288;10.966;2022-11-13T01:13:24;10.70;;;7.77;;
29500;SDS011;16450;50.288;10.966;2022-11-13T01:16:26;12.70;;;8.07;;
29500;SDS011;16450;50.288;10.966;2022-11-13T01:19:27;11.27;;;7.37;;
29500;SDS011;16450;50.288;10.966;2022-11-13T01:22:28;11.90;;;7.87;;
29500;SDS011;16450;50.288;10.966;2022-11-13T01:25:29;9.63;;;7.13;;
29500;SDS011;16450;50.288;10.966;2022-11-13T01:28:30;9.00;;;6.70;;
29500;SDS011;16450;50.288;10.966;2022-11-13T01:31:30;11.53;;;8.17;;
29500;SDS011;16450;50.288;10.966;2022-11-13T01:34:31;12.63;;;8.40;;
29500;SDS011;16450;50.288;10.966;2022-11-13T01:37:32;11.67;;;8.43;;
29500;SDS011;16450;50.288;10.966;2022-11-13T01:40:32;11.77;;;9.00;;
29500;SDS011;16450;50.288;10.966;2022-11-13T01:43:34;12.10;;;8.83;;
29500;SDS011;16450;50.288;10.966;2022-11-13T01:49:41;11.63;;;9.10;;
29500;SDS011;16450;50.288;10.966;2022-11-13T01:52:43;11.90;;;8.63;;
29500;SDS011;16450;50.288;10.966;2022-11-13T01:55:44;12.20;;;8.43;;
29500;SDS011;16450;50.288;10.966;2022-11-13T01:58:47;11.53;;;9.17;;
29500;SDS011;16450;50.288;10.966;2022-11-13T02:02:04;12.07;;;9.00;;
29500;SDS011;16450;50.288;10.966;2022-11-13T02:05:05;10.87;;;8.73;;
29500;SDS011;16450;50.288;10.966;2022-11-13T02:08:08;10.90;;;8.53;;
29500;SDS011;16450;50.288;10.966;2022-11-13T02:11:08;9.87;;;8.13;;
29500;SDS011;16450;50.288;10.966;2022-11-13T02:14:10;13.23;;;8.43;;
29500;SDS011;16450;50.288;10.966;2022-11-13T02:17:17;12.70;;;8.33;;
29500;SDS011;16450;50.288;10.966;2022-11-13T02:20:55;10.37;;;7.87;;
29500;SDS011;16450;50.288;10.966;2022-11-13T02:27:46;10.20;;;8.07;;
29500;SDS011;16450;50.288;10.966;2022-11-13T02:30:48;9.67;;;7.80;;
29500;SDS011;16450;50.288;10.966;2022-11-13T02:33:49;9.77;;;7.70;;
29500;SDS011;16450;50.288;10.966;2022-11-13T02:36:49;10.23;;;7.73;;
29500;SDS011;16450;50.288;10.966;2022-11-13T02:39:50;9.27;;;7.33;;
29500;SDS011;16450;50.288;10.966;2022-11-13T02:42:51;9.97;;;6.97;;
29500;SDS011;16450;50.288;10.966;2022-11-13T02:45:51;10.80;;;7.10;;
29500;SDS011;16450;50.288;10.966;2022-11-13T02:48:52;10.03;;;7.23;;
29500;SDS011;16450;50.288;10.966;2022-11-13T02:51:53;9.17;;;6.83;;
29500;SDS011;16450;50.288;10.966;2022-11-13T02:54:53;11.03;;;7.20;;
29500;SDS011;16450;50.288;10.966;2022-11-13T02:57:54;8.57;;;7.27;;
29500;SDS011;16450;50.288;10.966;2022-11-13T03:00:54;8.83;;;6.87;;
29500;SDS011;16450;50.288;10.966;2022-11-13T03:03:55;9.50;;;6.97;;
29500;SDS011;16450;50.288;10.966;2022-11-13T03:06:56;9.20;;;6.67;;
29500;SDS011;16450;50.288;10.966;2022-11-13T03:09:57;11.57;;;7.13;;
29500;SDS011;16450;50.288;10.966;2022-11-13T03:12:58;8.60;;;6.53;;
29500;SDS011;16450;50.288;10.966;2022-11-13T03:16:09;7.97;;;6.40;;
29500;SDS011;16450;50.288;10.966;2022-11-13T03:19:11;9.97;;;6.60;;
29500;SDS011;16450;50.288;10.966;2022-11-13T03:22:12;11.20;;;7.27;;
29500;SDS011;16450;50.288;10.966;2022-11-13T03:25:12;10.73;;;6.87;;
29500;SDS011;16450;50.288;10.966;2022-11-13T03:28:13;11.97;;;7.67;;
29500;SDS011;16450;50.288;10.966;2022-11-13T03:31:13;9.83;;;6.80;;
29500;SDS011;16450;50.288;10.966;2022-11-13T03:34:14;9.47;;;6.17;;
29500;SDS011;16450;50.288;10.966;2022-11-13T03:37:15;9.73;;;6.10;;
29500;SDS011;16450;50.288;10.966;2022-11-13T03:40:15;10.40;;;6.27;;
29500;SDS011;16450;50.288;10.966;2022-11-13T03:43:16;11.67;;;6.67;;
29500;SDS011;16450;50.288;10.966;2022-11-13T03:46:17;9.17;;;6.23;;
29500;SDS011;16450;50.288;10.966;2022-11-13T03:49:18;7.63;;;5.60;;
29500;SDS011;16450;50.288;10.966;2022-11-13T03:52:19;10.60;;;6.03;;
29500;SDS011;16450;50.288;10.966;2022-11-13T03:55:19;10.80;;;6.43;;
29500;SDS011;16450;50.288;10.966;2022-11-13T03:58:20;8.50;;;5.13;;
29500;SDS011;16450;50.288;10.966;2022-11-13T04:01:20;7.43;;;5.00;;
29500;SDS011;16450;50.288;10.966;2022-11-13T04:04:21;8.97;;;5.30;;
29500;SDS011;16450;50.288;10.966;2022-11-13T04:07:22;6.77;;;5.27;;
29500;SDS011;16450;50.288;10.966;2022-11-13T04:10:22;8.07;;;4.63;;
29500;SDS011;16450;50.288;10.966;2022-11-13T04:13:23;7.20;;;4.83;;
29500;SDS011;16450;50.288;10.966;2022-11-13T04:16:24;11.50;;;6.47;;
29500;SDS011;16450;50.288;10.966;2022-11-13T04:19:24;9.20;;;5.73;;
29500;SDS011;16450;50.288;10.966;2022-11-13T04:22:25;7.97;;;5.80;;
29500;SDS011;16450;50.288;10.966;2022-11-13T04:25:26;8.37;;;5.40;;
29500;SDS011;16450;50.288;10.966;2022-11-13T04:28:26;9.33;;;5.40;;
29500;SDS011;16450;50.288;10.966;2022-11-13T04:31:27;8.17;;;5.43;;
29500;SDS011;16450;50.288;10.966;2022-11-13T04:34:27;8.90;;;5.23;;
29500;SDS011;16450;50.288;10.966;2022-11-13T04:37:28;7.10;;;4.33;;
29500;SDS011;16450;50.288;10.966;2022-11-13T04:40:29;6.63;;;4.13;;
29500;SDS011;16450;50.288;10.966;2022-11-13T04:43:29;6.33;;;3.80;;
29500;SDS011;16450;50.288;10.966;2022-11-13T04:46:30;6.37;;;3.93;;
29500;SDS011;16450;50.288;10.966;2022-11-13T04:49:31;7.47;;;4.07;;
29500;SDS011;16450;50.288;10.966;2022-11-13T04:52:31;5.83;;;3.80;;
29500;SDS011;16450;50.288;10.966;2022-11-13T04:55:32;5.20;;;3.53;;
29500;SDS011;16450;50.288;10.966;2022-11-13T04:58:32;8.00;;;3.50;;
29500;SDS011;16450;50.288;10.966;2022-11-13T05:01:33;9.40;;;3.80;;
29500;SDS011;16450;50.288;10.966;2022-11-13T05:04:35;6.30;;;3.93;;
29500;SDS011;16450;50.288;10.966;2022-11-13T05:07:36;7.27;;;4.13;;
29500;SDS011;16450;50.288;10.966;2022-11-13T05:10:36;8.17;;;5.27;;
29500;SDS011;16450;50.288;10.966;2022-11-13T05:13:37;7.87;;;6.10;;
29500;SDS011;16450;50.288;10.966;2022-11-13T05:16:38;8.67;;;6.20;;
29500;SDS011;16450;50.288;10.966;2022-11-13T05:19:38;7.90;;;5.83;;
29500;SDS011;16450;50.288;10.966;2022-11-13T05:22:39;8.10;;;6.37;;
29500;SDS011;16450;50.288;10.966;2022-11-13T05:25:40;10.23;;;7.43;;
29500;SDS011;16450;50.288;10.966;2022-11-13T05:28:40;9.57;;;6.90;;
29500;SDS011;16450;50.288;10.966;2022-11-13T05:31:41;9.03;;;7.10;;
29500;SDS011;16450;50.288;10.966;2022-11-13T05:34:42;10.77;;;7.97;;
29500;SDS011;16450;50.288;10.966;2022-11-13T05:37:42;9.90;;;7.50;;
29500;SDS011;16450;50.288;10.966;2022-11-13T05:40:43;11.83;;;7.83;;
29500;SDS011;16450;50.288;10.966;2022-11-13T05:43:44;11.30;;;8.00;;
29500;SDS011;16450;50.288;10.966;2022-11-13T05:46:45;9.83;;;6.80;;
29500;SDS011;16450;50.288;10.966;2022-11-13T05:49:46;11.57;;;7.60;;
29500;SDS011;16450;50.288;10.966;2022-11-13T05:52:46;9.57;;;6.97;;
29500;SDS011;16450;50.288;10.966;2022-11-13T05:55:47;10.50;;;6.90;;
29500;SDS011;16450;50.288;10.966;2022-11-13T05:58:48;9.87;;;6.43;;
29500;SDS011;16450;50.288;10.966;2022-11-13T06:01:50;10.67;;;6.90;;
29500;SDS011;16450;50.288;10.966;2022-11-13T06:04:50;9.57;;;6.93;;
29500;SDS011;16450;50.288;10.966;2022-11-13T06:07:51;14.07;;;7.73;;
29500;SDS011;16450;50.288;10.966;2022-11-13T06:10:52;11.07;;;7.40;;
29500;SDS011;16450;50.288;10.966;2022-11-13T06:13:58;9.97;;;6.70;;
29500;SDS011;16450;50.288;10.966;2022-11-13T06:16:59;10.53;;;7.23;;
29500;SDS011;16450;50.288;10.966;2022-11-13T06:19:59;10.13;;;7.03;;
29500;SDS011;16450;50.288;10.966;2022-11-13T06:23:00;9.87;;;7.17;;
29500;SDS011;16450;50.288;10.966;2022-11-13T06:26:02;9.37;;;6.63;;
29500;SDS011;16450;50.288;10.966;2022-11-13T06:29:04;10.90;;;6.73;;
29500;SDS011;16450;50.288;10.966;2022-11-13T06:32:06;10.30;;;6.50;;
29500;SDS011;16450;50.288;10.966;2022-11-13T06:35:06;9.97;;;6.70;;
29500;SDS011;16450;50.288;10.966;2022-11-13T06:38:07;8.90;;;6.13;;
29500;SDS011;16450;50.288;10.966;2022-11-13T06:41:10;10.07;;;7.00;;
29500;SDS011;16450;50.288;10.966;2022-11-13T06:44:12;10.87;;;6.13;;
29500;SDS011;16450;50.288;10.966;2022-11-13T06:47:12;9.50;;;6.43;;
29500;SDS011;16450;50.288;10.966;2022-11-13T06:50:13;8.97;;;6.47;;
29500;SDS011;16450;50.288;10.966;2022-11-13T06:53:14;9.00;;;6.60;;
29500;SDS011;16450;50.288;10.966;2022-11-13T06:56:15;8.97;;;6.33;;
29500;SDS011;16450;50.288;10.966;2022-11-13T06:59:17;9.43;;;7.20;;
29500;SDS011;16450;50.288;10.966;2022-11-13T07:02:17;11.00;;;6.50;;
29500;SDS011;16450;50.288;10.966;2022-11-13T07:05:18;9.47;;;6.80;;
29500;SDS011;16450;50.288;10.966;2022-11-13T07:08:18;11.67;;;7.63;;
29500;SDS011;16450;50.288;10.966;2022-11-13T07:11:20;10.63;;;7.77;;
29500;SDS011;16450;50.288;10.966;2022-11-13T07:14:21;11.93;;;8.37;;
29500;SDS011;16450;50.288;10.966;2022-11-13T07:17:22;12.87;;;8.40;;
29500;SDS011;16450;50.288;10.966;2022-11-13T07:20:23;16.73;;;10.53;;
29500;SDS011;16450;50.288;10.966;2022-11-13T07:23:23;13.17;;;9.07;;
29500;SDS011;16450;50.288;10.966;2022-11-13T07:26:24;13.63;;;9.23;;
29500;SDS011;16450;50.288;10.966;2022-11-13T07:29:25;12.87;;;7.93;;
29500;SDS011;16450;50.288;10.966;2022-11-13T07:32:27;12.83;;;6.73;;
29500;SDS011;16450;50.288;10.966;2022-11-13T07:35:28;10.13;;;7.43;;
29500;SDS011;16450;50.288;10.966;2022-11-13T07:38:28;9.83;;;7.20;;
29500;SDS011;16450;50.288;10.966;2022-11-13T07:41:29;10.07;;;7.13;;
29500;SDS011;16450;50.288;10.966;2022-11-13T07:44:29;12.10;;;7.80;;
29500;SDS011;16450;50.288;10.966;2022-11-13T07:47:30;13.50;;;9.70;;
29500;SDS011;16450;50.288;10.966;2022-11-13T07:50:32;13.77;;;9.73;;
29500;SDS011;16450;50.288;10.966;2022-11-13T07:53:35;12.63;;;9.17;;
29500;SDS011;16450;50.288;10.966;2022-11-13T07:56:37;13.03;;;8.60;;
29500;SDS011;16450;50.288;10.966;2022-11-13T07:59:38;17.30;;;8.93;;
29500;SDS011;16450;50.288;10.966;2022-11-13T08:02:39;14.27;;;9.23;;
29500;SDS011;16450;50.288;10.966;2022-11-13T08:05:40;15.83;;;9.80;;
29500;SDS011;16450;50.288;10.966;2022-11-13T08:08:41;17.07;;;9.67;;
29500;SDS011;16450;50.288;10.966;2022-11-13T08:11:42;16.97;;;9.90;;
29500;SDS011;16450;50.288;10.966;2022-11-13T08:14:42;16.10;;;8.50;;
29500;SDS011;16450;50.288;10.966;2022-11-13T08:17:43;13.10;;;8.60;;
29500;SDS011;16450;50.288;10.966;2022-11-13T08:20:44;14.53;;;8.83;;
29500;SDS011;16450;50.288;10.966;2022-11-13T08:23:44;17.20;;;10.83;;
29500;SDS011;16450;50.288;10.966;2022-11-13T08:26:45;16.80;;;10.27;;
29500;SDS011;16450;50.288;10.966;2022-11-13T08:29:46;17.37;;;10.17;;
29500;SDS011;16450;50.288;10.966;2022-11-13T08:32:48;17.63;;;10.90;;
29500;SDS011;16450;50.288;10.966;2022-11-13T08:35:55;18.60;;;11.10;;
29500;SDS011;16450;50.288;10.966;2022-11-13T08:38:58;17.47;;;9.77;;
29500;SDS011;16450;50.288;10.966;2022-11-13T08:41:58;16.10;;;10.63;;
29500;SDS011;16450;50.288;10.966;2022-11-13T08:44:59;16.27;;;10.40;;
29500;SDS011;16450;50.288;10.966;2022-11-13T08:48:00;18.50;;;10.53;;
29500;SDS011;16450;50.288;10.966;2022-11-13T08:51:02;16.57;;;10.83;;
29500;SDS011;16450;50.288;10.966;2022-11-13T08:54:03;13.70;;;9.40;;
29500;SDS011;16450;50.288;10.966;2022-11-13T08:57:03;15.27;;;9.93;;
29500;SDS011;16450;50.288;10.966;2022-11-13T09:00:04;15.00;;;9.20;;
29500;SDS011;16450;50.288;10.966;2022-11-13T09:03:06;13.43;;;9.37;;
29500;SDS011;16450;50.288;10.966;2022-11-13T09:06:08;14.03;;;9.40;;
29500;SDS011;16450;50.288;10.966;2022-11-13T09:09:09;13.97;;;9.30;;
29500;SDS011;16450;50.288;10.966;2022-11-13T09:12:09;13.60;;;9.03;;
29500;SDS011;16450;50.288;10.966;2022-11-13T09:15:11;16.43;;;10.77;;
29500;SDS011;16450;50.288;10.966;2022-11-13T09:18:12;13.17;;;9.00;;
29500;SDS011;16450;50.288;10.966;2022-11-13T09:21:12;10.90;;;7.23;;
29500;SDS011;16450;50.288;10.966;2022-11-13T09:24:13;9.73;;;6.67;;
29500;SDS011;16450;50.288;10.966;2022-11-13T09:27:13;11.10;;;6.90;;
29500;SDS011;16450;50.288;10.966;2022-11-13T09:30:14;10.70;;;6.50;;
29500;SDS011;16450;50.288;10.966;2022-11-13T09:33:15;10.83;;;7.17;;
29500;SDS011;16450;50.288;10.966;2022-11-13T09:36:16;12.57;;;7.40;;
29500;SDS011;16450;50.288;10.966;2022-11-13T09:39:17;11.10;;;7.13;;
29500;SDS011;16450;50.288;10.966;2022-11-13T09:42:21;13.67;;;7.53;;
29500;SDS011;16450;50.288;10.966;2022-11-13T09:45:25;13.13;;;7.47;;
29500;SDS011;16450;50.288;10.966;2022-11-13T09:51:36;9.57;;;7.00;;
29500;SDS011;16450;50.288;10.966;2022-11-13T09:54:37;10.63;;;6.97;;
29500;SDS011;16450;50.288;10.966;2022-11-13T09:57:44;11.77;;;6.97;;
29500;SDS011;16450;50.288;10.966;2022-11-13T10:00:54;10.80;;;7.30;;
29500;SDS011;16450;50.288;10.966;2022-11-13T10:03:58;10.03;;;7.37;;
29500;SDS011;16450;50.288;10.966;2022-11-13T10:07:04;13.90;;;7.33;;
29500;SDS011;16450;50.288;10.966;2022-11-13T10:13:30;10.97;;;6.77;;
29500;SDS011;16450;50.288;10.966;2022-11-13T10:16:42;10.30;;;7.00;;
29500;SDS011;16450;50.288;10.966;2022-11-13T10:19:54;10.27;;;6.97;;
29500;SDS011;16450;50.288;10.966;2022-11-13T10:23:03;11.63;;;7.33;;
29500;SDS011;16450;50.288;10.966;2022-11-13T10:26:16;10.57;;;6.90;;
29500;SDS011;16450;50.288;10.966;2022-11-13T10:29:19;10.10;;;7.03;;
29500;SDS011;16450;50.288;10.966;2022-11-13T10:38:42;10.70;;;6.87;;
29500;SDS011;16450;50.288;10.966;2022-11-13T10:41:48;10.40;;;6.83;;
29500;SDS011;16450;50.288;10.966;2022-11-13T10:44:54;9.97;;;6.80;;
29500;SDS011;16450;50.288;10.966;2022-11-13T10:47:59;9.57;;;6.43;;
29500;SDS011;16450;50.288;10.966;2022-11-13T10:51:04;10.17;;;6.63;;
29500;SDS011;16450;50.288;10.966;2022-11-13T10:54:24;9.73;;;6.40;;
29500;SDS011;16450;50.288;10.966;2022-11-13T10:57:31;9.60;;;6.47;;
29500;SDS011;16450;50.288;10.966;2022-11-13T11:00:35;8.97;;;6.30;;
29500;SDS011;16450;50.288;10.966;2022-11-13T11:03:37;8.33;;;5.97;;
29500;SDS011;16450;50.288;10.966;2022-11-13T11:06:49;10.00;;;6.80;;
29500;SDS011;16450;50.288;10.966;2022-11-13T11:09:50;10.17;;;6.77;;
29500;SDS011;16450;50.288;10.966;2022-11-13T11:13:20;12.57;;;6.23;;
29500;SDS011;16450;50.288;10.966;2022-11-13T11:16:20;10.60;;;6.13;;
29500;SDS011;16450;50.288;10.966;2022-11-13T11:19:24;9.77;;;6.50;;
29500;SDS011;16450;50.288;10.966;2022-11-13T11:22:29;9.87;;;6.80;;
29500;SDS011;16450;50.288;10.966;2022-11-13T11:25:38;9.67;;;6.47;;
29500;SDS011;16450;50.288;10.966;2022-11-13T11:32:10;10.23;;;6.67;;
29500;SDS011;16450;50.288;10.966;2022-11-13T11:38:52;9.57;;;5.87;;
29500;SDS011;16450;50.288;10.966;2022-11-13T11:42:05;8.07;;;5.83;;
29500;SDS011;16450;50.288;10.966;2022-11-13T11:45:24;7.57;;;4.30;;
29500;SDS011;16450;50.288;10.966;2022-11-13T11:48:29;6.47;;;4.07;;
29500;SDS011;16450;50.288;10.966;2022-11-13T11:51:33;4.97;;;3.70;;
29500;SDS011;16450;50.288;10.966;2022-11-13T11:54:42;3.13;;;1.80;;
29500;SDS011;16450;50.288;10.966;2022-11-13T11:58:10;3.67;;;1.70;;
29500;SDS011;16450;50.288;10.966;2022-11-13T12:09:02;2.77;;;1.70;;
29500;SDS011;16450;50.288;10.966;2022-11-13T12:15:34;2.33;;;1.67;;
29500;SDS011;16450;50.288;10.966;2022-11-13T12:19:03;2.67;;;1.63;;
29500;SDS011;16450;50.288;10.966;2022-11-13T12:25:25;3.13;;;1.60;;
29500;SDS011;16450;50.288;10.966;2022-11-13T12:28:45;2.60;;;1.63;;
29500;SDS011;16450;50.288;10.966;2022-11-13T12:35:18;3.10;;;1.80;;
29500;SDS011;16450;50.288;10.966;2022-11-13T12:44:39;3.63;;;2.00;;
29500;SDS011;16450;50.288;10.966;2022-11-13T12:47:48;2.43;;;1.60;;
29500;SDS011;16450;50.288;10.966;2022-11-13T12:50:58;2.20;;;1.60;;
29500;SDS011;16450;50.288;10.966;2022-11-13T12:54:00;2.87;;;1.73;;
29500;SDS011;16450;50.288;10.966;2022-11-13T12:57:05;3.53;;;1.67;;
29500;SDS011;16450;50.288;10.966;2022-11-13T13:00:27;2.17;;;1.53;;
29500;SDS011;16450;50.288;10.966;2022-11-13T13:03:35;3.17;;;1.50;;
29500;SDS011;16450;50.288;10.966;2022-11-13T13:07:32;2.47;;;1.60;;
29500;SDS011;16450;50.288;10.966;2022-11-13T13:10:32;3.67;;;1.67;;
29500;SDS011;16450;50.288;10.966;2022-11-13T13:17:48;4.23;;;1.97;;
29500;SDS011;16450;50.288;10.966;2022-11-13T13:24:23;4.10;;;1.90;;
29500;SDS011;16450;50.288;10.966;2022-11-13T13:27:28;2.33;;;1.80;;
29500;SDS011;16450;50.288;10.966;2022-11-13T13:30:35;4.00;;;2.47;;
29500;SDS011;16450;50.288;10.966;2022-11-13T13:37:39;4.47;;;2.23;;
29500;SDS011;16450;50.288;10.966;2022-11-13T13:47:36;3.40;;;1.80;;
29500;SDS011;16450;50.288;10.966;2022-11-13T13:50:44;2.63;;;1.97;;
29500;SDS011;16450;50.288;10.966;2022-11-13T13:53:46;3.60;;;1.77;;
29500;SDS011;16450;50.288;10.966;2022-11-13T13:56:48;3.10;;;1.77;;
29500;SDS011;16450;50.288;10.966;2022-11-13T13:59:49;2.83;;;1.80;;
29500;SDS011;16450;50.288;10.966;2022-11-13T14:02:50;3.27;;;1.87;;
29500;SDS011;16450;50.288;10.966;2022-11-13T14:05:52;3.67;;;2.20;;
29500;SDS011;16450;50.288;10.966;2022-11-13T14:08:53;2.83;;;1.90;;
29500;SDS011;16450;50.288;10.966;2022-11-13T14:12:00;3.10;;;1.90;;
29500;SDS011;16450;50.288;10.966;2022-11-13T14:15:03;2.30;;;1.70;;
29500;SDS011;16450;50.288;10.966;2022-11-13T14:18:10;3.57;;;2.00;;
29500;SDS011;16450;50.288;10.966;2022-11-13T14:21:19;2.93;;;1.90;;
29500;SDS011;16450;50.288;10.966;2022-11-13T14:24:34;3.00;;;1.60;;
29500;SDS011;16450;50.288;10.966;2022-11-13T14:27:41;3.03;;;1.67;;
29500;SDS011;16450;50.288;10.966;2022-11-13T14:30:41;2.77;;;1.80;;
29500;SDS011;16450;50.288;10.966;2022-11-13T14:33:43;3.20;;;1.70;;
29500;SDS011;16450;50.288;10.966;2022-11-13T14:36:47;2.67;;;1.97;;
29500;SDS011;16450;50.288;10.966;2022-11-13T14:39:48;2.87;;;2.20;;
29500;SDS011;16450;50.288;10.966;2022-11-13T14:43:00;4.00;;;2.20;;
29500;SDS011;16450;50.288;10.966;2022-11-13T14:46:05;3.53;;;2.10;;
29500;SDS011;16450;50.288;10.966;2022-11-13T14:49:26;4.67;;;2.00;;
29500;SDS011;16450;50.288;10.966;2022-11-13T14:52:28;3.20;;;2.07;;
29500;SDS011;16450;50.288;10.966;2022-11-13T14:55:30;2.97;;;2.00;;
29500;SDS011;16450;50.288;10.966;2022-11-13T14:58:51;2.83;;;1.90;;
29500;SDS011;16450;50.288;10.966;2022-11-13T15:01:55;2.47;;;2.03;;
29500;SDS011;16450;50.288;10.966;2022-11-13T15:04:57;3.80;;;2.37;;
29500;SDS011;16450;50.288;10.966;2022-11-13T15:07:57;2.97;;;2.30;;
29500;SDS011;16450;50.288;10.966;2022-11-13T15:10:58;4.47;;;2.30;;
29500;SDS011;16450;50.288;10.966;2022-11-13T15:13:59;4.00;;;2.33;;
29500;SDS011;16450;50.288;10.966;2022-11-13T15:17:00;3.33;;;2.17;;
29500;SDS011;16450;50.288;10.966;2022-11-13T15:20:01;4.03;;;2.50;;
29500;SDS011;16450;50.288;10.966;2022-11-13T15:23:02;3.97;;;2.40;;
29500;SDS011;16450;50.288;10.966;2022-11-13T15:26:02;2.77;;;2.33;;
29500;SDS011;16450;50.288;10.966;2022-11-13T15:29:03;3.57;;;2.50;;
29500;SDS011;16450;50.288;10.966;2022-11-13T15:32:07;4.17;;;2.30;;
29500;SDS011;16450;50.288;10.966;2022-11-13T15:35:12;3.67;;;2.50;;
29500;SDS011;16450;50.288;10.966;2022-11-13T15:38:16;5.07;;;2.57;;
29500;SDS011;16450;50.288;10.966;2022-11-13T15:41:21;5.97;;;2.80;;
29500;SDS011;16450;50.288;10.966;2022-11-13T15:44:24;5.00;;;2.80;;
29500;SDS011;16450;50.288;10.966;2022-11-13T15:47:26;5.07;;;2.97;;
29500;SDS011;16450;50.288;10.966;2022-11-13T15:50:28;6.17;;;3.13;;
29500;SDS011;16450;50.288;10.966;2022-11-13T15:53:29;6.37;;;3.23;;
29500;SDS011;16450;50.288;10.966;2022-11-13T15:56:30;6.90;;;3.43;;
29500;SDS011;16450;50.288;10.966;2022-11-13T15:59:30;6.67;;;3.43;;
29500;SDS011;16450;50.288;10.966;2022-11-13T16:02:31;4.93;;;3.33;;
29500;SDS011;16450;50.288;10.966;2022-11-13T16:05:32;7.73;;;4.30;;
29500;SDS011;16450;50.288;10.966;2022-11-13T16:08:33;7.67;;;4.73;;
29500;SDS011;16450;50.288;10.966;2022-11-13T16:11:33;10.43;;;6.90;;
29500;SDS011;16450;50.288;10.966;2022-11-13T16:14:34;5.90;;;4.30;;
29500;SDS011;16450;50.288;10.966;2022-11-13T16:17:37;8.07;;;5.00;;
29500;SDS011;16450;50.288;10.966;2022-11-13T16:20:41;5.97;;;4.30;;
29500;SDS011;16450;50.288;10.966;2022-11-13T16:23:41;13.77;;;8.87;;
29500;SDS011;16450;50.288;10.966;2022-11-13T16:26:44;16.03;;;11.20;;
29500;SDS011;16450;50.288;10.966;2022-11-13T16:29:53;11.80;;;7.37;;
29500;SDS011;16450;50.288;10.966;2022-11-13T16:32:54;7.57;;;4.53;;
29500;SDS011;16450;50.288;10.966;2022-11-13T16:35:55;6.10;;;4.07;;
29500;SDS011;16450;50.288;10.966;2022-11-13T16:38:55;6.30;;;4.43;;
29500;SDS011;16450;50.288;10.966;2022-11-13T16:41:56;7.00;;;3.50;;
29500;SDS011;16450;50.288;10.966;2022-11-13T16:44:56;7.43;;;4.63;;
29500;SDS011;16450;50.288;10.966;2022-11-13T16:47:57;7.57;;;3.83;;
29500;SDS011;16450;50.288;10.966;2022-11-13T16:50:58;5.70;;;4.00;;
29500;SDS011;16450;50.288;10.966;2022-11-13T16:53:58;7.50;;;3.90;;
29500;SDS011;16450;50.288;10.966;2022-11-13T16:56:59;6.93;;;3.67;;
29500;SDS011;16450;50.288;10.966;2022-11-13T16:59:59;7.47;;;4.43;;
29500;SDS011;16450;50.288;10.966;2022-11-13T17:03:00;7.80;;;5.23;;
29500;SDS011;16450;50.288;10.966;2022-11-13T17:06:00;8.23;;;4.30;;
29500;SDS011;16450;50.288;10.966;2022-11-13T17:09:02;7.27;;;4.23;;
29500;SDS011;16450;50.288;10.966;2022-11-13T17:12:03;7.87;;;4.63;;
29500;SDS011;16450;50.288;10.966;2022-11-13T17:15:04;6.63;;;4.20;;
29500;SDS011;16450;50.288;10.966;2022-11-13T17:18:05;5.87;;;3.77;;
29500;SDS011;16450;50.288;10.966;2022-11-13T17:21:06;6.77;;;4.50;;
29500;SDS011;16450;50.288;10.966;2022-11-13T17:24:07;6.73;;;4.27;;
29500;SDS011;16450;50.288;10.966;2022-11-13T17:27:08;8.67;;;4.67;;
29500;SDS011;16450;50.288;10.966;2022-11-13T17:30:09;9.77;;;5.20;;
29500;SDS011;16450;50.288;10.966;2022-11-13T17:33:11;12.50;;;8.23;;
29500;SDS011;16450;50.288;10.966;2022-11-13T17:36:12;12.87;;;8.93;;
29500;SDS011;16450;50.288;10.966;2022-11-13T17:39:13;9.53;;;6.13;;
29500;SDS011;16450;50.288;10.966;2022-11-13T17:42:13;7.70;;;5.03;;
29500;SDS011;16450;50.288;10.966;2022-11-13T17:45:14;8.77;;;5.23;;
29500;SDS011;16450;50.288;10.966;2022-11-13T17:48:15;7.47;;;4.90;;
29500;SDS011;16450;50.288;10.966;2022-11-13T17:51:16;9.17;;;5.17;;
29500;SDS011;16450;50.288;10.966;2022-11-13T17:54:16;11.37;;;5.63;;
29500;SDS011;16450;50.288;10.966;2022-11-13T17:57:17;10.60;;;6.50;;
29500;SDS011;16450;50.288;10.966;2022-11-13T18:00:17;29.70;;;17.17;;
29500;SDS011;16450;50.288;10.966;2022-11-13T18:03:18;9.87;;;6.10;;
29500;SDS011;16450;50.288;10.966;2022-11-13T18:06:19;9.00;;;5.27;;
29500;SDS011;16450;50.288;10.966;2022-11-13T18:09:20;8.63;;;5.60;;
29500;SDS011;16450;50.288;10.966;2022-11-13T18:12:21;8.70;;;5.60;;
29500;SDS011;16450;50.288;10.966;2022-11-13T18:15:22;9.53;;;6.40;;
29500;SDS011;16450;50.288;10.966;2022-11-13T18:18:23;10.60;;;6.10;;
29500;SDS011;16450;50.288;10.966;2022-11-13T18:21:25;10.33;;;6.13;;
29500;SDS011;16450;50.288;10.966;2022-11-13T18:24:27;10.00;;;6.27;;
29500;SDS011;16450;50.288;10.966;2022-11-13T18:27:28;12.60;;;7.43;;
29500;SDS011;16450;50.288;10.966;2022-11-13T18:30:29;18.33;;;9.10;;
29500;SDS011;16450;50.288;10.966;2022-11-13T18:33:30;12.87;;;7.07;;
29500;SDS011;16450;50.288;10.966;2022-11-13T18:36:31;12.17;;;6.70;;
29500;SDS011;16450;50.288;10.966;2022-11-13T18:39:33;15.87;;;10.23;;
29500;SDS011;16450;50.288;10.966;2022-11-13T18:42:34;12.50;;;7.50;;
29500;SDS011;16450;50.288;10.966;2022-11-13T18:45:34;11.10;;;7.33;;
29500;SDS011;16450;50.288;10.966;2022-11-13T18:48:36;11.30;;;7.00;;
29500;SDS011;16450;50.288;10.966;2022-11-13T18:51:38;10.50;;;6.87;;
29500;SDS011;16450;50.288;10.966;2022-11-13T18:54:38;14.07;;;9.47;;
29500;SDS011;16450;50.288;10.966;2022-11-13T18:57:39;13.10;;;7.90;;
29500;SDS011;16450;50.288;10.966;2022-11-13T19:00:40;13.03;;;8.20;;
29500;SDS011;16450;50.288;10.966;2022-11-13T19:03:40;14.93;;;8.20;;
29500;SDS011;16450;50.288;10.966;2022-11-13T19:06:42;12.77;;;8.90;;